createdAt,value
2023-03-04T00:02:19.576Z,6.23
2023-03-04T00:04:46.345Z,7.40
2023-03-04T00:07:16.688Z,6.90
2023-03-04T00:09:44.892Z,7.37
2023-03-04T00:12:11.611Z,8.40
2023-03-04T00:14:38.645Z,7.80
2023-03-04T00:17:05.372Z,6.93
2023-03-04T00:19:32.037Z,6.80
2023-03-04T00:21:58.943Z,8.90
2023-03-04T00:24:25.728Z,6.50
2023-03-04T00:26:52.406Z,7.40
2023-03-04T00:29:19.100Z,6.87
2023-03-04T00:31:45.981Z,6.87
2023-03-04T00:34:12.673Z,7.60
2023-03-04T00:36:39.448Z,8.30
2023-03-04T00:39:06.113Z,7.07
2023-03-04T00:41:32.813Z,6.87
2023-03-04T00:43:59.444Z,7.90
2023-03-04T00:46:26.153Z,8.00
2023-03-04T00:48:53.168Z,8.07
2023-03-04T00:51:19.796Z,6.90
2023-03-04T00:53:47.688Z,6.83
2023-03-04T00:56:14.671Z,7.37
2023-03-04T00:58:41.326Z,7.57
2023-03-04T01:01:08.223Z,7.60
2023-03-04T01:03:35.042Z,7.17
2023-03-04T01:06:01.986Z,8.00
2023-03-04T01:08:28.815Z,7.47
2023-03-04T01:10:55.496Z,8.07
2023-03-04T01:13:22.228Z,8.03
2023-03-04T01:15:48.928Z,7.20
2023-03-04T01:18:15.874Z,7.97
2023-03-04T01:20:42.566Z,8.17
2023-03-04T01:23:09.255Z,7.43
2023-03-04T01:25:35.938Z,7.93
2023-03-04T01:28:02.665Z,7.00
2023-03-04T01:30:29.329Z,7.30
2023-03-04T01:32:56.044Z,8.03
2023-03-04T01:35:22.729Z,7.83
2023-03-04T01:37:49.432Z,7.33
2023-03-04T01:40:16.536Z,7.60
2023-03-04T01:42:44.839Z,8.33
2023-03-04T01:45:15.579Z,6.93
2023-03-04T01:47:48.365Z,8.40
2023-03-04T01:50:29.467Z,7.70
2023-03-04T01:52:56.364Z,7.13
2023-03-04T01:55:24.409Z,7.40
2023-03-04T01:57:52.526Z,7.50
2023-03-04T02:00:30.986Z,7.87
2023-03-04T02:03:04.269Z,7.43
2023-03-04T02:05:31.322Z,7.90
2023-03-04T02:07:59.459Z,6.40
2023-03-04T02:10:26.339Z,8.07
2023-03-04T02:12:53.550Z,7.20
2023-03-04T02:15:21.113Z,8.83
2023-03-04T02:17:47.978Z,8.60
2023-03-04T02:20:44.906Z,7.07
2023-03-04T02:23:35.513Z,7.90
2023-03-04T02:26:28.966Z,9.87
2023-03-04T02:28:57.808Z,8.43
2023-03-04T02:31:36.973Z,8.10
2023-03-04T02:34:13.688Z,8.37
2023-03-04T02:36:41.852Z,7.93
2023-03-04T02:39:36.103Z,7.93
2023-03-04T02:42:03.672Z,7.97
2023-03-04T02:44:35.709Z,6.87
2023-03-04T02:47:03.701Z,7.93
2023-03-04T02:49:32.653Z,8.30
2023-03-04T02:52:15.387Z,10.70
2023-03-04T02:54:42.287Z,9.03
2023-03-04T02:57:11.884Z,9.40
2023-03-04T02:59:39.975Z,8.53
2023-03-04T03:02:08.070Z,7.83
2023-03-04T03:04:38.118Z,8.97
2023-03-04T03:07:05.107Z,9.33
2023-03-04T03:09:31.828Z,8.40
2023-03-04T03:11:58.755Z,9.53
2023-03-04T03:14:25.440Z,8.40
2023-03-04T03:16:52.062Z,11.00
2023-03-04T03:19:18.679Z,12.93
2023-03-04T03:21:45.337Z,16.30
2023-03-04T03:24:12.058Z,11.60
2023-03-04T03:26:40.016Z,11.07
2023-03-04T03:29:08.062Z,10.47
2023-03-04T03:31:34.835Z,10.57
2023-03-04T03:34:01.545Z,9.83
2023-03-04T03:36:28.489Z,11.13
2023-03-04T03:38:55.127Z,11.50
2023-03-04T03:41:21.799Z,11.00
2023-03-04T03:43:48.656Z,10.40
2023-03-04T03:46:15.317Z,10.33
2023-03-04T03:48:42.114Z,10.03
2023-03-04T03:51:08.822Z,10.27
2023-03-04T03:53:35.473Z,10.13
2023-03-04T03:56:02.126Z,10.27
2023-03-04T03:58:28.811Z,11.67
2023-03-04T04:00:58.130Z,10.20
2023-03-04T04:03:25.460Z,10.57
2023-03-04T04:05:52.146Z,10.97
2023-03-04T04:08:19.293Z,10.03
2023-03-04T04:10:46.359Z,11.10
2023-03-04T04:13:13.359Z,11.40
2023-03-04T04:15:40.335Z,10.70
2023-03-04T04:18:07.343Z,10.00
2023-03-04T04:20:34.407Z,9.83
2023-03-04T04:23:02.114Z,12.00
2023-03-04T04:25:28.981Z,10.87
2023-03-04T04:27:55.875Z,11.00
2023-03-04T04:30:22.545Z,11.47
2023-03-04T04:32:49.213Z,11.07
2023-03-04T04:35:15.879Z,11.97
2023-03-04T04:37:42.643Z,12.73
2023-03-04T04:40:09.923Z,12.77
2023-03-04T04:42:36.620Z,11.57
2023-03-04T04:45:03.687Z,11.07
2023-03-04T04:47:30.337Z,11.00
2023-03-04T04:49:56.971Z,11.27
2023-03-04T04:52:23.745Z,11.80
2023-03-04T04:54:50.400Z,10.40
2023-03-04T04:57:17.409Z,13.43
2023-03-04T04:59:44.325Z,11.40
2023-03-04T05:02:11.012Z,11.00
2023-03-04T05:04:37.747Z,10.70
2023-03-04T05:07:04.585Z,12.70
2023-03-04T05:09:31.208Z,11.20
2023-03-04T05:11:57.973Z,12.90
2023-03-04T05:14:24.829Z,14.20
2023-03-04T05:16:52.962Z,11.10
2023-03-04T05:19:21.167Z,12.77
2023-03-04T05:21:47.835Z,12.37
2023-03-04T05:24:14.514Z,12.63
2023-03-04T05:26:41.326Z,12.90
2023-03-04T05:29:08.167Z,13.70
2023-03-04T05:31:34.947Z,12.57
2023-03-04T05:34:01.624Z,12.10
2023-03-04T05:36:28.346Z,11.60
2023-03-04T05:38:55.017Z,11.23
2023-03-04T05:41:22.757Z,11.80
2023-03-04T05:43:50.194Z,12.20
2023-03-04T05:46:19.271Z,11.93
2023-03-04T05:48:46.134Z,11.70
2023-03-04T05:51:12.858Z,14.23
2023-03-04T05:53:41.012Z,15.13
2023-03-04T05:56:10.131Z,12.77
2023-03-04T05:58:37.236Z,12.40
2023-03-04T06:01:04.663Z,14.23
2023-03-04T06:03:31.712Z,14.43
2023-03-04T06:05:58.937Z,31.77
2023-03-04T06:08:25.822Z,25.27
2023-03-04T06:10:54.225Z,35.27
2023-03-04T06:13:21.267Z,35.07
2023-03-04T06:15:49.361Z,26.50
2023-03-04T06:18:16.042Z,22.70
2023-03-04T06:20:43.030Z,22.67
2023-03-04T06:23:09.776Z,20.30
2023-03-04T06:25:36.634Z,15.93
2023-03-04T06:28:03.301Z,15.00
2023-03-04T06:30:30.078Z,17.00
2023-03-04T06:32:56.717Z,14.67
2023-03-04T06:35:23.791Z,14.47
2023-03-04T06:37:50.697Z,13.47
2023-03-04T06:40:17.479Z,12.77
2023-03-04T06:42:44.224Z,13.47
2023-03-04T06:45:11.420Z,13.53
2023-03-04T06:47:38.836Z,12.10
2023-03-04T06:50:06.404Z,12.37
2023-03-04T06:52:33.250Z,13.63
2023-03-04T06:55:00.265Z,11.90
2023-03-04T06:57:27.142Z,13.03
2023-03-04T06:59:53.825Z,13.53
2023-03-04T07:02:20.458Z,11.87
2023-03-04T07:04:47.147Z,13.33
2023-03-04T07:07:14.118Z,12.10
2023-03-04T07:09:41.327Z,12.90
2023-03-04T07:12:08.009Z,13.30
2023-03-04T07:14:34.857Z,13.93
2023-03-04T07:17:01.780Z,13.50
2023-03-04T07:19:28.664Z,16.17
2023-03-04T07:21:55.603Z,14.20
2023-03-04T07:24:22.369Z,12.03
2023-03-04T07:26:49.056Z,13.47
2023-03-04T07:29:15.751Z,11.97
2023-03-04T07:31:44.020Z,12.40
2023-03-04T07:34:13.828Z,13.27
2023-03-04T07:36:41.119Z,14.20
2023-03-04T07:39:08.584Z,15.90
2023-03-04T07:41:36.358Z,13.53
2023-03-04T07:44:04.316Z,12.83
2023-03-04T07:46:31.531Z,12.80
2023-03-04T07:48:58.177Z,12.27
2023-03-04T07:51:26.828Z,11.93
2023-03-04T07:53:56.726Z,11.90
2023-03-04T07:56:25.922Z,13.30
2023-03-04T07:58:53.924Z,13.33
2023-03-04T08:01:29.455Z,12.00
2023-03-04T08:03:56.207Z,12.63
2023-03-04T08:06:23.652Z,13.53
2023-03-04T08:08:55.858Z,12.60
2023-03-04T08:11:22.676Z,12.87
2023-03-04T08:13:49.828Z,12.43
2023-03-04T08:16:18.536Z,13.53
2023-03-04T08:18:48.145Z,12.50
2023-03-04T08:21:16.428Z,12.30
2023-03-04T08:23:43.292Z,12.03
2023-03-04T08:26:13.236Z,13.67
2023-03-04T08:28:41.137Z,10.80
2023-03-04T08:31:08.181Z,11.83
2023-03-04T08:33:35.293Z,12.43
2023-03-04T08:36:02.044Z,11.13
2023-03-04T08:38:28.713Z,11.50
2023-03-04T08:40:56.973Z,12.20
2023-03-04T08:43:25.202Z,12.57
2023-03-04T08:45:53.880Z,13.47
2023-03-04T08:48:21.600Z,12.77
2023-03-04T08:50:49.127Z,12.37
2023-03-04T08:53:17.227Z,13.20
2023-03-04T08:55:45.005Z,13.80
2023-03-04T08:58:12.991Z,13.77
2023-03-04T09:00:43.149Z,12.97
2023-03-04T09:03:12.598Z,12.40
2023-03-04T09:05:39.380Z,12.83
2023-03-04T09:08:07.244Z,14.50
2023-03-04T09:10:34.004Z,13.03
2023-03-04T09:13:01.722Z,11.90
2023-03-04T09:15:28.774Z,13.17
2023-03-04T09:17:55.672Z,12.70
2023-03-04T09:20:23.107Z,12.70
2023-03-04T09:22:50.090Z,12.53
2023-03-04T09:25:16.902Z,13.83
2023-03-04T09:27:43.703Z,13.07
2023-03-04T09:30:11.037Z,12.53
2023-03-04T09:32:37.906Z,13.10
2023-03-04T09:35:05.234Z,12.90
2023-03-04T09:37:32.236Z,12.93
2023-03-04T09:39:58.908Z,13.47
2023-03-04T09:42:33.159Z,12.10
2023-03-04T09:45:00.551Z,13.00
2023-03-04T09:47:28.167Z,11.80
2023-03-04T09:49:58.517Z,10.90
2023-03-04T09:52:43.830Z,10.50
2023-03-04T09:55:28.132Z,9.70
2023-03-04T09:58:01.251Z,8.43
2023-03-04T10:00:47.718Z,8.83
2023-03-04T10:03:25.274Z,9.07
2023-03-04T10:06:06.077Z,8.03
2023-03-04T10:08:35.885Z,8.90
2023-03-04T10:11:06.429Z,8.20
2023-03-04T10:13:53.881Z,8.43
2023-03-04T10:16:25.769Z,7.63
2023-03-04T10:19:01.947Z,8.60
2023-03-04T10:21:50.429Z,8.10
2023-03-04T10:24:25.131Z,6.93
2023-03-04T10:27:03.425Z,9.20
2023-03-04T10:29:32.677Z,9.37
2023-03-04T10:31:59.902Z,11.07
2023-03-04T10:34:26.737Z,8.47
2023-03-04T10:37:06.960Z,10.10
2023-03-04T10:39:35.578Z,8.20
2023-03-04T10:42:03.894Z,11.13
2023-03-04T10:44:32.646Z,9.73
2023-03-04T10:46:59.330Z,8.93
2023-03-04T10:49:28.294Z,7.37
2023-03-04T10:52:19.054Z,9.77
2023-03-04T10:54:52.646Z,8.80
2023-03-04T10:57:20.630Z,10.63
2023-03-04T11:00:28.353Z,8.23
2023-03-04T11:03:17.830Z,9.03
2023-03-04T11:05:44.509Z,8.83
2023-03-04T11:08:19.454Z,7.90
2023-03-04T11:10:46.575Z,8.00
2023-03-04T11:13:20.850Z,6.97
2023-03-04T11:15:59.597Z,7.53
2023-03-04T11:18:34.557Z,8.00
2023-03-04T11:21:01.420Z,9.60
2023-03-04T11:23:52.885Z,10.60
2023-03-04T11:26:30.593Z,10.57
2023-03-04T11:29:00.710Z,8.30
2023-03-04T11:31:52.392Z,8.67
2023-03-04T11:34:52.070Z,7.60
2023-03-04T11:37:23.070Z,7.40
2023-03-04T11:39:58.415Z,8.47
2023-03-04T11:42:52.426Z,6.93
2023-03-04T11:45:35.077Z,6.57
2023-03-04T11:48:21.788Z,7.40
2023-03-04T11:50:50.764Z,7.90
2023-03-04T11:53:33.387Z,8.20
2023-03-04T11:56:32.182Z,8.13
2023-03-04T11:59:13.694Z,9.00
2023-03-04T12:01:49.278Z,8.00
2023-03-04T12:04:40.767Z,6.80
2023-03-04T12:07:25.630Z,8.03
2023-03-04T12:10:50.683Z,7.23
2023-03-04T12:13:36.451Z,8.67
2023-03-04T12:16:15.058Z,8.23
2023-03-04T12:19:16.258Z,8.07
2023-03-04T12:22:20.403Z,7.97
2023-03-04T12:25:22.072Z,8.63
2023-03-04T12:28:16.286Z,7.53
2023-03-04T12:31:03.051Z,6.53
2023-03-04T12:33:47.864Z,8.70
2023-03-04T12:36:20.825Z,7.47
2023-03-04T12:39:10.098Z,7.60
2023-03-04T12:41:55.655Z,7.20
2023-03-04T12:44:23.572Z,6.80
2023-03-04T12:47:27.965Z,7.30
2023-03-04T12:49:57.431Z,6.30
2023-03-04T12:52:49.747Z,6.60
2023-03-04T12:55:22.127Z,7.53
2023-03-04T12:57:50.550Z,7.10
2023-03-04T13:00:49.427Z,7.40
2023-03-04T13:03:24.432Z,6.70
2023-03-04T13:06:24.639Z,6.27
2023-03-04T13:09:02.348Z,5.63
2023-03-04T13:11:29.973Z,6.20
2023-03-04T13:14:05.207Z,6.20
2023-03-04T13:16:47.862Z,6.33
2023-03-04T13:19:45.694Z,6.77
2023-03-04T13:22:39.655Z,7.13
2023-03-04T13:25:44.416Z,6.10
2023-03-04T13:28:11.296Z,6.97
2023-03-04T13:30:40.701Z,6.70
2023-03-04T13:33:16.081Z,7.50
2023-03-04T13:36:06.292Z,5.90
2023-03-04T13:38:37.444Z,6.13
2023-03-04T13:41:28.304Z,6.93
2023-03-04T13:43:56.747Z,6.00
2023-03-04T13:46:24.239Z,6.20
2023-03-04T13:48:51.348Z,5.90
2023-03-04T13:51:31.598Z,5.90
2023-03-04T13:54:02.781Z,6.77
2023-03-04T13:56:37.478Z,9.20
2023-03-04T13:59:14.313Z,7.27
2023-03-04T14:01:43.818Z,7.60
2023-03-04T14:04:18.177Z,7.53
2023-03-04T14:06:50.280Z,7.67
2023-03-04T14:09:22.382Z,7.17
2023-03-04T14:11:51.730Z,7.80
2023-03-04T14:14:41.022Z,8.67
2023-03-04T14:17:21.502Z,8.20
2023-03-04T14:19:49.756Z,8.00
2023-03-04T14:22:31.558Z,8.80
2023-03-04T14:25:06.999Z,9.30
2023-03-04T14:27:36.322Z,9.40
2023-03-04T14:30:06.924Z,8.27
2023-03-04T14:32:33.906Z,8.63
2023-03-04T14:35:07.357Z,8.03
2023-03-04T14:37:46.893Z,9.47
2023-03-04T14:40:27.045Z,9.57
2023-03-04T14:43:04.684Z,8.90
2023-03-04T14:45:31.783Z,10.23
2023-03-04T14:48:04.860Z,9.07
2023-03-04T14:50:32.050Z,8.83
2023-03-04T14:53:29.057Z,7.97
2023-03-04T14:56:04.634Z,9.53
2023-03-04T14:58:39.672Z,10.80
2023-03-04T15:01:28.660Z,9.53
2023-03-04T15:04:01.224Z,11.13
2023-03-04T15:06:50.791Z,11.60
2023-03-04T15:09:23.711Z,12.63
2023-03-04T15:11:52.964Z,10.53
2023-03-04T15:14:46.846Z,10.60
2023-03-04T15:17:37.786Z,9.57
2023-03-04T15:20:07.593Z,9.73
2023-03-04T15:22:40.374Z,10.33
2023-03-04T15:25:07.336Z,10.57
2023-03-04T15:27:34.049Z,10.40
2023-03-04T15:30:02.270Z,10.00
2023-03-04T15:32:29.900Z,10.30
2023-03-04T15:34:56.784Z,10.50
2023-03-04T15:37:29.099Z,10.70
2023-03-04T15:39:57.549Z,10.70
2023-03-04T15:42:24.640Z,11.60
2023-03-04T15:44:51.335Z,19.90
2023-03-04T15:47:18.056Z,16.60
2023-03-04T15:49:47.360Z,12.83
2023-03-04T15:52:18.758Z,10.90
2023-03-04T15:54:46.505Z,11.03
2023-03-04T15:57:21.208Z,11.77
2023-03-04T15:59:47.899Z,14.10
2023-03-04T16:02:23.817Z,13.57
2023-03-04T16:04:50.924Z,13.00
2023-03-04T16:07:20.369Z,12.87
2023-03-04T16:09:52.635Z,26.80
2023-03-04T16:12:19.629Z,22.73
2023-03-04T16:14:46.972Z,50.70
2023-03-04T16:17:16.229Z,14.40
2023-03-04T16:19:42.941Z,16.07
2023-03-04T16:22:18.127Z,9.93
2023-03-04T16:24:44.865Z,12.23
2023-03-04T16:27:16.572Z,11.07
2023-03-04T16:29:43.601Z,11.80
2023-03-04T16:32:11.300Z,11.47
2023-03-04T16:34:38.057Z,11.90
2023-03-04T16:37:12.277Z,11.80
2023-03-04T16:39:41.182Z,14.10
2023-03-04T16:42:14.968Z,15.27
2023-03-04T16:44:41.833Z,20.10
2023-03-04T16:47:08.532Z,16.27
2023-03-04T16:49:35.370Z,15.03
2023-03-04T16:52:02.754Z,16.27
2023-03-04T16:54:31.940Z,12.93
2023-03-04T16:56:59.614Z,14.03
2023-03-04T16:59:27.001Z,11.97
2023-03-04T17:01:54.172Z,14.63
2023-03-04T17:04:22.283Z,13.10
2023-03-04T17:06:49.340Z,11.40
2023-03-04T17:09:16.093Z,10.10
2023-03-04T17:11:43.140Z,11.33
2023-03-04T17:14:09.907Z,10.30
2023-03-04T17:16:36.700Z,11.37
2023-03-04T17:19:03.394Z,10.43
2023-03-04T17:21:30.085Z,10.70
2023-03-04T17:23:56.832Z,11.30
2023-03-04T17:26:23.583Z,11.23
2023-03-04T17:28:50.794Z,10.37
2023-03-04T17:31:19.485Z,9.37
2023-03-04T17:33:47.068Z,9.40
2023-03-04T17:36:15.987Z,11.10
2023-03-04T17:38:43.086Z,10.67
2023-03-04T17:41:15.893Z,10.27
2023-03-04T17:43:47.805Z,10.80
2023-03-04T17:46:16.443Z,9.47
2023-03-04T17:48:43.744Z,9.47
2023-03-04T17:51:11.770Z,9.33
2023-03-04T17:53:38.884Z,10.47
2023-03-04T17:56:08.375Z,9.37
2023-03-04T17:58:36.868Z,8.93
2023-03-04T18:01:11.348Z,9.07
2023-03-04T18:03:38.123Z,9.10
2023-03-04T18:06:05.036Z,10.73
2023-03-04T18:08:31.956Z,11.27
2023-03-04T18:10:58.958Z,11.30
2023-03-04T18:13:25.666Z,9.73
2023-03-04T18:15:52.781Z,9.57
2023-03-04T18:18:19.519Z,9.43
2023-03-04T18:20:46.197Z,8.43
2023-03-04T18:23:12.910Z,9.30
2023-03-04T18:25:40.096Z,9.37
2023-03-04T18:28:06.773Z,9.80
2023-03-04T18:30:33.733Z,8.80
2023-03-04T18:33:01.990Z,8.13
2023-03-04T18:35:29.400Z,9.93
2023-03-04T18:37:56.505Z,8.10
2023-03-04T18:40:23.351Z,10.00
2023-03-04T18:42:50.895Z,10.13
2023-03-04T18:45:17.587Z,10.37
2023-03-04T18:47:50.368Z,11.90
2023-03-04T18:50:18.081Z,16.10
2023-03-04T18:52:44.916Z,16.33
2023-03-04T18:55:12.988Z,16.30
2023-03-04T18:57:42.199Z,15.10
2023-03-04T19:00:10.640Z,13.47
2023-03-04T19:02:43.445Z,12.60
2023-03-04T19:05:14.293Z,13.17
2023-03-04T19:07:40.942Z,14.43
2023-03-04T19:10:08.698Z,16.00
2023-03-04T19:12:35.621Z,14.90
2023-03-04T19:15:02.678Z,16.17
2023-03-04T19:17:32.590Z,14.83
2023-03-04T19:19:59.681Z,12.93
2023-03-04T19:22:26.414Z,13.63
2023-03-04T19:24:53.152Z,14.33
2023-03-04T19:27:19.958Z,16.03
2023-03-04T19:29:48.106Z,11.17
2023-03-04T19:32:17.399Z,11.00
2023-03-04T19:34:45.245Z,10.60
2023-03-04T19:37:13.073Z,12.20
2023-03-04T19:39:39.956Z,11.60
2023-03-04T19:42:06.657Z,10.50
2023-03-04T19:44:33.290Z,10.50
2023-03-04T19:47:00.321Z,10.50
2023-03-04T19:49:27.040Z,10.30
2023-03-04T19:51:53.949Z,10.90
2023-03-04T19:54:20.627Z,10.37
2023-03-04T19:56:47.478Z,10.30
2023-03-04T19:59:14.221Z,10.40
2023-03-04T20:01:41.996Z,9.63
2023-03-04T20:04:11.551Z,10.33
2023-03-04T20:06:41.186Z,9.90
2023-03-04T20:09:07.963Z,11.63
2023-03-04T20:11:41.501Z,12.43
2023-03-04T20:14:17.644Z,12.23
2023-03-04T20:16:44.360Z,11.93
2023-03-04T20:19:11.044Z,10.40
2023-03-04T20:21:37.725Z,11.80
2023-03-04T20:24:04.806Z,12.23
2023-03-04T20:26:32.293Z,14.13
2023-03-04T20:28:59.863Z,14.00
2023-03-04T20:31:28.361Z,12.00
2023-03-04T20:33:56.067Z,14.10
2023-03-04T20:36:25.065Z,14.70
2023-03-04T20:39:02.065Z,13.43
2023-03-04T20:41:30.294Z,14.43
2023-03-04T20:43:57.338Z,13.33
2023-03-04T20:46:34.852Z,11.80
2023-03-04T20:49:05.188Z,13.37
2023-03-04T20:51:33.689Z,12.30
2023-03-04T20:54:00.885Z,14.00
2023-03-04T20:56:28.341Z,14.00
2023-03-04T20:58:56.974Z,13.70
2023-03-04T21:01:24.963Z,11.67
2023-03-04T21:03:52.108Z,12.63
2023-03-04T21:06:19.296Z,10.73
2023-03-04T21:08:46.720Z,13.47
2023-03-04T21:11:14.627Z,11.57
2023-03-04T21:13:42.912Z,13.73
2023-03-04T21:16:15.541Z,12.60
2023-03-04T21:18:43.541Z,11.80
2023-03-04T21:21:22.721Z,12.03
2023-03-04T21:23:50.774Z,13.90
2023-03-04T21:26:18.805Z,14.70
2023-03-04T21:28:46.393Z,14.17
2023-03-04T21:31:18.931Z,12.73
2023-03-04T21:33:46.773Z,12.10
2023-03-04T21:36:14.017Z,13.10
2023-03-04T21:38:41.945Z,12.93
2023-03-04T21:41:14.166Z,12.40
2023-03-04T21:43:40.952Z,13.40
2023-03-04T21:46:09.631Z,13.80
2023-03-04T21:48:36.570Z,12.40
2023-03-04T21:51:05.668Z,12.20
2023-03-04T21:53:34.483Z,12.57
2023-03-04T21:56:01.296Z,12.43
2023-03-04T21:58:28.723Z,13.47
2023-03-04T22:00:57.090Z,12.30
2023-03-04T22:03:23.886Z,13.37
2023-03-04T22:05:51.132Z,11.97
2023-03-04T22:08:20.480Z,12.83
2023-03-04T22:10:47.772Z,14.40
2023-03-04T22:13:16.107Z,18.03
2023-03-04T22:15:44.243Z,16.27
2023-03-04T22:18:13.251Z,14.50
2023-03-04T22:20:42.621Z,14.50
2023-03-04T22:23:10.296Z,13.73
2023-03-04T22:25:39.524Z,14.80
2023-03-04T22:28:07.648Z,15.87
2023-03-04T22:30:36.154Z,14.23
2023-03-04T22:33:03.218Z,14.57
2023-03-04T22:35:30.605Z,16.93
2023-03-04T22:37:57.767Z,13.20
2023-03-04T22:40:24.660Z,14.73
2023-03-04T22:42:51.728Z,16.03
2023-03-04T22:45:18.852Z,14.97
2023-03-04T22:47:52.731Z,14.70
2023-03-04T22:50:20.847Z,14.50
2023-03-04T22:52:48.490Z,14.80
2023-03-04T22:55:17.119Z,12.37
2023-03-04T22:57:43.992Z,14.10
2023-03-04T23:00:25.820Z,15.03
2023-03-04T23:02:52.899Z,13.87
2023-03-04T23:05:20.936Z,15.03
2023-03-04T23:07:48.639Z,14.20
2023-03-04T23:10:20.085Z,14.30
2023-03-04T23:12:46.881Z,13.50
2023-03-04T23:15:15.588Z,12.70
2023-03-04T23:17:42.902Z,14.43
2023-03-04T23:20:16.181Z,13.47
2023-03-04T23:22:43.296Z,16.07
2023-03-04T23:25:10.139Z,14.47
2023-03-04T23:27:38.170Z,15.57
2023-03-04T23:30:07.866Z,14.70
2023-03-04T23:32:34.557Z,14.17
2023-03-04T23:35:01.257Z,14.63
2023-03-04T23:37:28.010Z,15.40
2023-03-04T23:39:54.741Z,15.10
2023-03-04T23:42:21.415Z,16.63
2023-03-04T23:44:48.077Z,14.80
2023-03-04T23:47:14.752Z,13.80
2023-03-04T23:49:41.401Z,15.87
2023-03-04T23:52:08.190Z,13.50
2023-03-04T23:54:34.833Z,14.70
2023-03-04T23:57:02.131Z,15.20
2023-03-04T23:59:29.378Z,14.00
